sensor_id;sensor_type;location;lat;lon;timestamp;temperature;humidity
14016;DHT22;7083;48.854;9.158;2023-02-16T00:01:17;-1.80;99.90
14016;DHT22;7083;48.854;9.158;2023-02-16T00:03:45;-1.80;99.90
14016;DHT22;7083;48.854;9.158;2023-02-16T00:06:11;-1.90;99.90
14016;DHT22;7083;48.854;9.158;2023-02-16T00:08:41;-1.90;99.90
14016;DHT22;7083;48.854;9.158;2023-02-16T00:11:14;-1.90;99.90
14016;DHT22;7083;48.854;9.158;2023-02-16T00:14:00;-1.90;99.90
14016;DHT22;7083;48.854;9.158;2023-02-16T00:16:29;-1.90;99.90
14016;DHT22;7083;48.854;9.158;2023-02-16T00:18:56;-1.90;99.90
14016;DHT22;7083;48.854;9.158;2023-02-16T00:21:22;-1.90;99.90
14016;DHT22;7083;48.854;9.158;2023-02-16T00:23:49;-1.90;99.90
14016;DHT22;7083;48.854;9.158;2023-02-16T00:26:18;-1.90;99.90
14016;DHT22;7083;48.854;9.158;2023-02-16T00:28:48;-1.90;99.90
14016;DHT22;7083;48.854;9.158;2023-02-16T00:31:18;-1.90;99.90
14016;DHT22;7083;48.854;9.158;2023-02-16T00:33:46;-2.00;99.90
14016;DHT22;7083;48.854;9.158;2023-02-16T00:36:13;-1.90;99.90
14016;DHT22;7083;48.854;9.158;2023-02-16T00:38:40;-1.90;99.90
14016;DHT22;7083;48.854;9.158;2023-02-16T00:41:14;-2.00;99.90
14016;DHT22;7083;48.854;9.158;2023-02-16T00:44:03;-2.00;99.90
14016;DHT22;7083;48.854;9.158;2023-02-16T00:46:31;-2.10;99.90
14016;DHT22;7083;48.854;9.158;2023-02-16T00:49:00;-2.00;99.90
14016;DHT22;7083;48.854;9.158;2023-02-16T00:51:28;-2.10;99.90
14016;DHT22;7083;48.854;9.158;2023-02-16T00:53:57;-2.10;99.90
14016;DHT22;7083;48.854;9.158;2023-02-16T00:56:24;-2.10;99.90
14016;DHT22;7083;48.854;9.158;2023-02-16T00:58:51;-2.20;99.90
14016;DHT22;7083;48.854;9.158;2023-02-16T01:01:20;-2.20;99.90
14016;DHT22;7083;48.854;9.158;2023-02-16T01:03:53;-2.20;99.90
14016;DHT22;7083;48.854;9.158;2023-02-16T01:06:23;-2.20;99.90
14016;DHT22;7083;48.854;9.158;2023-02-16T01:09:12;-2.20;99.90
14016;DHT22;7083;48.854;9.158;2023-02-16T01:11:57;-2.20;99.90
14016;DHT22;7083;48.854;9.158;2023-02-16T01:14:24;-2.20;99.90
14016;DHT22;7083;48.854;9.158;2023-02-16T01:16:50;-2.20;99.90
14016;DHT22;7083;48.854;9.158;2023-02-16T01:19:20;-2.20;99.90
14016;DHT22;7083;48.854;9.158;2023-02-16T01:21:47;-2.20;99.90
14016;DHT22;7083;48.854;9.158;2023-02-16T01:24:14;-2.20;99.90
14016;DHT22;7083;48.854;9.158;2023-02-16T01:26:43;-2.20;99.90
14016;DHT22;7083;48.854;9.158;2023-02-16T01:29:14;-2.20;99.90
14016;DHT22;7083;48.854;9.158;2023-02-16T01:31:42;-2.20;99.90
14016;DHT22;7083;48.854;9.158;2023-02-16T01:34:08;-2.20;99.90
14016;DHT22;7083;48.854;9.158;2023-02-16T01:36:41;-2.20;99.90
14016;DHT22;7083;48.854;9.158;2023-02-16T01:39:10;-2.20;99.90
14016;DHT22;7083;48.854;9.158;2023-02-16T01:41:44;-2.20;99.90
14016;DHT22;7083;48.854;9.158;2023-02-16T01:44:15;-2.20;99.90
14016;DHT22;7083;48.854;9.158;2023-02-16T01:46:46;-2.20;99.90
14016;DHT22;7083;48.854;9.158;2023-02-16T01:49:17;-2.30;99.90
14016;DHT22;7083;48.854;9.158;2023-02-16T01:51:50;-2.30;99.90
14016;DHT22;7083;48.854;9.158;2023-02-16T01:54:30;-2.30;99.90
14016;DHT22;7083;48.854;9.158;2023-02-16T01:57:02;-2.30;99.90
14016;DHT22;7083;48.854;9.158;2023-02-16T01:59:40;-2.30;99.90
14016;DHT22;7083;48.854;9.158;2023-02-16T02:02:13;-2.30;99.90
14016;DHT22;7083;48.854;9.158;2023-02-16T02:04:44;-2.30;99.90
14016;DHT22;7083;48.854;9.158;2023-02-16T02:07:39;-2.40;99.90
14016;DHT22;7083;48.854;9.158;2023-02-16T02:10:10;-2.40;99.90
14016;DHT22;7083;48.854;9.158;2023-02-16T02:12:45;-2.50;99.90
14016;DHT22;7083;48.854;9.158;2023-02-16T02:15:16;-2.50;99.90
14016;DHT22;7083;48.854;9.158;2023-02-16T02:17:45;-2.50;99.90
14016;DHT22;7083;48.854;9.158;2023-02-16T02:20:17;-2.50;99.90
14016;DHT22;7083;48.854;9.158;2023-02-16T02:23:09;-2.50;99.90
14016;DHT22;7083;48.854;9.158;2023-02-16T02:26:33;-2.50;99.90
14016;DHT22;7083;48.854;9.158;2023-02-16T02:29:09;-2.50;99.90
14016;DHT22;7083;48.854;9.158;2023-02-16T02:31:46;-2.50;99.90
14016;DHT22;7083;48.854;9.158;2023-02-16T02:34:26;-2.50;99.90
14016;DHT22;7083;48.854;9.158;2023-02-16T02:37:04;-2.60;99.90
14016;DHT22;7083;48.854;9.158;2023-02-16T02:39:42;-2.60;99.90
14016;DHT22;7083;48.854;9.158;2023-02-16T02:42:22;-2.60;99.90
14016;DHT22;7083;48.854;9.158;2023-02-16T02:44:53;-2.60;99.90
14016;DHT22;7083;48.854;9.158;2023-02-16T02:47:21;-2.60;99.90
14016;DHT22;7083;48.854;9.158;2023-02-16T02:49:49;-2.60;99.90
14016;DHT22;7083;48.854;9.158;2023-02-16T02:52:16;-2.50;99.90
14016;DHT22;7083;48.854;9.158;2023-02-16T02:54:44;-2.60;99.90
14016;DHT22;7083;48.854;9.158;2023-02-16T02:57:34;-2.60;99.90
14016;DHT22;7083;48.854;9.158;2023-02-16T03:00:22;-2.60;99.90
14016;DHT22;7083;48.854;9.158;2023-02-16T03:03:10;-2.70;99.90
14016;DHT22;7083;48.854;9.158;2023-02-16T03:05:42;-2.70;99.90
14016;DHT22;7083;48.854;9.158;2023-02-16T03:08:13;-2.70;99.90
14016;DHT22;7083;48.854;9.158;2023-02-16T03:10:45;-2.60;99.90
14016;DHT22;7083;48.854;9.158;2023-02-16T03:13:37;-2.70;99.90
14016;DHT22;7083;48.854;9.158;2023-02-16T03:16:07;-2.60;99.90
14016;DHT22;7083;48.854;9.158;2023-02-16T03:18:36;-2.60;99.90
14016;DHT22;7083;48.854;9.158;2023-02-16T03:21:21;-2.60;99.90
14016;DHT22;7083;48.854;9.158;2023-02-16T03:24:08;-2.50;99.90
14016;DHT22;7083;48.854;9.158;2023-02-16T03:26:57;-2.50;99.90
14016;DHT22;7083;48.854;9.158;2023-02-16T03:29:44;-2.50;99.90
14016;DHT22;7083;48.854;9.158;2023-02-16T03:32:12;-2.50;99.90
14016;DHT22;7083;48.854;9.158;2023-02-16T03:34:39;-2.50;99.90
14016;DHT22;7083;48.854;9.158;2023-02-16T03:37:06;-2.50;99.90
14016;DHT22;7083;48.854;9.158;2023-02-16T03:39:33;-2.40;99.90
14016;DHT22;7083;48.854;9.158;2023-02-16T03:42:21;-2.50;99.90
14016;DHT22;7083;48.854;9.158;2023-02-16T03:44:50;-2.40;99.90
14016;DHT22;7083;48.854;9.158;2023-02-16T03:47:17;-2.40;99.90
14016;DHT22;7083;48.854;9.158;2023-02-16T03:49:44;-2.40;99.90
14016;DHT22;7083;48.854;9.158;2023-02-16T03:52:10;-2.50;99.90
14016;DHT22;7083;48.854;9.158;2023-02-16T03:54:37;-2.40;99.90
14016;DHT22;7083;48.854;9.158;2023-02-16T03:57:04;-2.40;99.90
14016;DHT22;7083;48.854;9.158;2023-02-16T03:59:30;-2.40;99.90
14016;DHT22;7083;48.854;9.158;2023-02-16T04:01:59;-2.50;99.90
14016;DHT22;7083;48.854;9.158;2023-02-16T04:04:25;-2.40;99.90
14016;DHT22;7083;48.854;9.158;2023-02-16T04:06:52;-2.50;99.90
14016;DHT22;7083;48.854;9.158;2023-02-16T04:09:19;-2.50;99.90
14016;DHT22;7083;48.854;9.158;2023-02-16T04:11:46;-2.50;99.90
14016;DHT22;7083;48.854;9.158;2023-02-16T04:14:30;-2.60;99.90
14016;DHT22;7083;48.854;9.158;2023-02-16T04:16:58;-2.60;99.90
14016;DHT22;7083;48.854;9.158;2023-02-16T04:19:25;-2.60;99.90
14016;DHT22;7083;48.854;9.158;2023-02-16T04:21:51;-2.60;99.90
14016;DHT22;7083;48.854;9.158;2023-02-16T04:24:21;-2.60;99.90
14016;DHT22;7083;48.854;9.158;2023-02-16T04:26:48;-2.70;99.90
14016;DHT22;7083;48.854;9.158;2023-02-16T04:29:15;-2.70;99.90
14016;DHT22;7083;48.854;9.158;2023-02-16T04:31:41;-2.70;99.90
14016;DHT22;7083;48.854;9.158;2023-02-16T04:34:09;-2.70;99.90
14016;DHT22;7083;48.854;9.158;2023-02-16T04:36:36;-2.70;99.90
14016;DHT22;7083;48.854;9.158;2023-02-16T04:39:03;-2.80;99.90
14016;DHT22;7083;48.854;9.158;2023-02-16T04:41:30;-2.80;99.90
14016;DHT22;7083;48.854;9.158;2023-02-16T04:43:57;-2.80;99.90
14016;DHT22;7083;48.854;9.158;2023-02-16T04:46:24;-2.90;99.90
14016;DHT22;7083;48.854;9.158;2023-02-16T04:48:51;-2.90;99.90
14016;DHT22;7083;48.854;9.158;2023-02-16T04:51:19;-2.90;99.90
14016;DHT22;7083;48.854;9.158;2023-02-16T04:53:45;-2.90;99.90
14016;DHT22;7083;48.854;9.158;2023-02-16T04:56:12;-3.00;99.90
14016;DHT22;7083;48.854;9.158;2023-02-16T04:58:39;-2.90;99.90
14016;DHT22;7083;48.854;9.158;2023-02-16T05:01:17;-3.00;99.90
14016;DHT22;7083;48.854;9.158;2023-02-16T05:03:44;-3.10;99.90
14016;DHT22;7083;48.854;9.158;2023-02-16T05:06:10;-3.10;99.90
14016;DHT22;7083;48.854;9.158;2023-02-16T05:11:37;-3.10;99.90
14016;DHT22;7083;48.854;9.158;2023-02-16T05:14:24;-3.10;99.90
14016;DHT22;7083;48.854;9.158;2023-02-16T05:17:12;-3.10;99.90
14016;DHT22;7083;48.854;9.158;2023-02-16T05:19:40;-3.10;99.90
14016;DHT22;7083;48.854;9.158;2023-02-16T05:22:07;-3.20;99.90
14016;DHT22;7083;48.854;9.158;2023-02-16T05:24:34;-3.20;99.90
14016;DHT22;7083;48.854;9.158;2023-02-16T05:27:03;-3.20;99.90
14016;DHT22;7083;48.854;9.158;2023-02-16T05:29:30;-3.20;99.90
14016;DHT22;7083;48.854;9.158;2023-02-16T05:31:57;-3.20;99.90
14016;DHT22;7083;48.854;9.158;2023-02-16T05:34:24;-3.20;99.90
14016;DHT22;7083;48.854;9.158;2023-02-16T05:36:51;-3.10;99.90
14016;DHT22;7083;48.854;9.158;2023-02-16T05:39:18;-3.20;99.90
14016;DHT22;7083;48.854;9.158;2023-02-16T05:41:45;-3.20;99.90
14016;DHT22;7083;48.854;9.158;2023-02-16T05:44:12;-3.20;99.90
14016;DHT22;7083;48.854;9.158;2023-02-16T05:46:39;-3.20;99.90
14016;DHT22;7083;48.854;9.158;2023-02-16T05:49:07;-3.20;99.90
14016;DHT22;7083;48.854;9.158;2023-02-16T05:51:35;-3.20;99.90
14016;DHT22;7083;48.854;9.158;2023-02-16T05:54:02;-3.20;99.90
14016;DHT22;7083;48.854;9.158;2023-02-16T05:56:29;-3.20;99.90
14016;DHT22;7083;48.854;9.158;2023-02-16T05:58:57;-3.20;99.90
14016;DHT22;7083;48.854;9.158;2023-02-16T06:01:28;-3.30;99.90
14016;DHT22;7083;48.854;9.158;2023-02-16T06:03:54;-3.20;99.90
14016;DHT22;7083;48.854;9.158;2023-02-16T06:06:21;-3.30;99.90
14016;DHT22;7083;48.854;9.158;2023-02-16T06:09:02;-3.20;99.90
14016;DHT22;7083;48.854;9.158;2023-02-16T06:11:28;-3.10;99.90
14016;DHT22;7083;48.854;9.158;2023-02-16T06:14:16;-3.20;99.90
14016;DHT22;7083;48.854;9.158;2023-02-16T06:16:47;-3.30;99.90
14016;DHT22;7083;48.854;9.158;2023-02-16T06:19:14;-3.20;99.90
14016;DHT22;7083;48.854;9.158;2023-02-16T06:21:41;-3.20;99.90
14016;DHT22;7083;48.854;9.158;2023-02-16T06:24:10;-3.30;99.90
14016;DHT22;7083;48.854;9.158;2023-02-16T06:26:37;-3.20;99.90
14016;DHT22;7083;48.854;9.158;2023-02-16T06:29:04;-3.30;99.90
14016;DHT22;7083;48.854;9.158;2023-02-16T06:31:31;-3.20;99.90
14016;DHT22;7083;48.854;9.158;2023-02-16T06:33:59;-3.20;99.90
14016;DHT22;7083;48.854;9.158;2023-02-16T06:36:28;-3.20;99.90
14016;DHT22;7083;48.854;9.158;2023-02-16T06:38:55;-3.40;99.90
14016;DHT22;7083;48.854;9.158;2023-02-16T06:41:21;-3.30;99.90
14016;DHT22;7083;48.854;9.158;2023-02-16T06:44:00;-3.30;99.90
14016;DHT22;7083;48.854;9.158;2023-02-16T06:46:34;-3.40;99.90
14016;DHT22;7083;48.854;9.158;2023-02-16T06:49:02;-3.20;99.90
14016;DHT22;7083;48.854;9.158;2023-02-16T06:51:29;-1.10;99.90
14016;DHT22;7083;48.854;9.158;2023-02-16T06:53:56;-2.30;99.90
14016;DHT22;7083;48.854;9.158;2023-02-16T06:56:23;-3.10;99.90
14016;DHT22;7083;48.854;9.158;2023-02-16T06:58:50;-3.20;99.90
14016;DHT22;7083;48.854;9.158;2023-02-16T07:01:17;-3.20;99.90
14016;DHT22;7083;48.854;9.158;2023-02-16T07:03:47;-3.30;99.90
14016;DHT22;7083;48.854;9.158;2023-02-16T07:06:16;-3.10;99.90
14016;DHT22;7083;48.854;9.158;2023-02-16T07:08:44;-3.20;99.90
14016;DHT22;7083;48.854;9.158;2023-02-16T07:11:11;-3.10;99.90
14016;DHT22;7083;48.854;9.158;2023-02-16T07:13:38;-3.00;99.90
14016;DHT22;7083;48.854;9.158;2023-02-16T07:16:06;-3.00;99.90
14016;DHT22;7083;48.854;9.158;2023-02-16T07:18:33;-2.90;99.90
14016;DHT22;7083;48.854;9.158;2023-02-16T07:21:02;-2.50;99.90
14016;DHT22;7083;48.854;9.158;2023-02-16T07:23:31;-2.10;99.90
14016;DHT22;7083;48.854;9.158;2023-02-16T07:25:59;-2.60;99.90
14016;DHT22;7083;48.854;9.158;2023-02-16T07:28:26;-2.20;99.90
14016;DHT22;7083;48.854;9.158;2023-02-16T07:30:53;-2.70;99.90
14016;DHT22;7083;48.854;9.158;2023-02-16T07:33:19;-2.60;99.90
14016;DHT22;7083;48.854;9.158;2023-02-16T07:35:46;-2.50;99.90
14016;DHT22;7083;48.854;9.158;2023-02-16T07:38:14;-2.40;99.90
14016;DHT22;7083;48.854;9.158;2023-02-16T07:40:43;-2.30;99.90
14016;DHT22;7083;48.854;9.158;2023-02-16T07:43:09;-2.20;99.90
14016;DHT22;7083;48.854;9.158;2023-02-16T07:45:36;-2.10;99.90
14016;DHT22;7083;48.854;9.158;2023-02-16T07:48:03;0.20;99.90
14016;DHT22;7083;48.854;9.158;2023-02-16T07:50:30;-1.80;99.90
14016;DHT22;7083;48.854;9.158;2023-02-16T07:53:00;-1.70;99.90
14016;DHT22;7083;48.854;9.158;2023-02-16T07:55:27;-1.70;99.90
14016;DHT22;7083;48.854;9.158;2023-02-16T07:57:56;-1.00;99.90
14016;DHT22;7083;48.854;9.158;2023-02-16T08:00:23;-1.50;99.90
14016;DHT22;7083;48.854;9.158;2023-02-16T08:02:50;0.00;99.90
14016;DHT22;7083;48.854;9.158;2023-02-16T08:05:17;-0.70;99.90
14016;DHT22;7083;48.854;9.158;2023-02-16T08:07:48;-1.00;99.90
14016;DHT22;7083;48.854;9.158;2023-02-16T08:10:16;-0.90;99.90
14016;DHT22;7083;48.854;9.158;2023-02-16T08:12:58;0.30;99.90
14016;DHT22;7083;48.854;9.158;2023-02-16T08:15:35;-0.40;99.90
14016;DHT22;7083;48.854;9.158;2023-02-16T08:18:38;-0.30;99.90
14016;DHT22;7083;48.854;9.158;2023-02-16T08:21:09;-0.30;99.90
14016;DHT22;7083;48.854;9.158;2023-02-16T08:23:53;-0.90;99.90
14016;DHT22;7083;48.854;9.158;2023-02-16T08:26:32;0.30;99.90
14016;DHT22;7083;48.854;9.158;2023-02-16T08:29:18;0.00;99.90
14016;DHT22;7083;48.854;9.158;2023-02-16T08:31:55;0.50;99.90
14016;DHT22;7083;48.854;9.158;2023-02-16T08:34:29;0.30;99.90
14016;DHT22;7083;48.854;9.158;2023-02-16T08:36:59;0.00;99.90
14016;DHT22;7083;48.854;9.158;2023-02-16T08:39:31;0.50;99.90
14016;DHT22;7083;48.854;9.158;2023-02-16T08:41:59;0.60;99.90
14016;DHT22;7083;48.854;9.158;2023-02-16T08:44:29;0.70;99.90
14016;DHT22;7083;48.854;9.158;2023-02-16T08:46:58;0.80;99.90
14016;DHT22;7083;48.854;9.158;2023-02-16T08:49:26;1.90;99.90
14016;DHT22;7083;48.854;9.158;2023-02-16T08:51:55;1.10;99.90
14016;DHT22;7083;48.854;9.158;2023-02-16T08:54:24;1.00;99.90
14016;DHT22;7083;48.854;9.158;2023-02-16T08:56:51;2.30;99.90
14016;DHT22;7083;48.854;9.158;2023-02-16T08:59:20;1.30;99.90
14016;DHT22;7083;48.854;9.158;2023-02-16T09:01:49;1.60;99.90
14016;DHT22;7083;48.854;9.158;2023-02-16T09:04:17;1.70;99.90
14016;DHT22;7083;48.854;9.158;2023-02-16T09:06:45;1.80;99.90
14016;DHT22;7083;48.854;9.158;2023-02-16T09:09:13;1.90;99.90
14016;DHT22;7083;48.854;9.158;2023-02-16T09:11:40;2.00;99.90
14016;DHT22;7083;48.854;9.158;2023-02-16T09:14:07;2.10;99.90
14016;DHT22;7083;48.854;9.158;2023-02-16T09:16:35;2.30;99.90
14016;DHT22;7083;48.854;9.158;2023-02-16T09:19:11;2.30;99.90
14016;DHT22;7083;48.854;9.158;2023-02-16T09:21:39;2.50;99.90
14016;DHT22;7083;48.854;9.158;2023-02-16T09:24:06;2.60;99.90
14016;DHT22;7083;48.854;9.158;2023-02-16T09:26:35;2.70;99.90
14016;DHT22;7083;48.854;9.158;2023-02-16T09:32:27;3.00;99.90
14016;DHT22;7083;48.854;9.158;2023-02-16T09:34:56;3.10;99.90
14016;DHT22;7083;48.854;9.158;2023-02-16T09:37:23;3.20;99.90
14016;DHT22;7083;48.854;9.158;2023-02-16T09:39:50;3.40;99.90
14016;DHT22;7083;48.854;9.158;2023-02-16T09:42:28;3.50;99.90
14016;DHT22;7083;48.854;9.158;2023-02-16T09:45:04;3.60;99.90
14016;DHT22;7083;48.854;9.158;2023-02-16T09:47:33;3.70;99.90
14016;DHT22;7083;48.854;9.158;2023-02-16T09:50:10;3.80;99.90
14016;DHT22;7083;48.854;9.158;2023-02-16T09:52:48;3.90;99.90
14016;DHT22;7083;48.854;9.158;2023-02-16T09:55:17;4.00;99.90
14016;DHT22;7083;48.854;9.158;2023-02-16T10:01:12;4.30;99.90
14016;DHT22;7083;48.854;9.158;2023-02-16T10:03:52;4.40;99.90
14016;DHT22;7083;48.854;9.158;2023-02-16T10:06:40;4.60;99.90
14016;DHT22;7083;48.854;9.158;2023-02-16T10:09:13;4.70;99.90
14016;DHT22;7083;48.854;9.158;2023-02-16T10:11:45;4.80;99.90
14016;DHT22;7083;48.854;9.158;2023-02-16T10:14:24;5.00;99.90
14016;DHT22;7083;48.854;9.158;2023-02-16T10:16:58;5.10;99.90
14016;DHT22;7083;48.854;9.158;2023-02-16T10:19:29;5.20;99.90
14016;DHT22;7083;48.854;9.158;2023-02-16T10:22:05;5.30;99.90
14016;DHT22;7083;48.854;9.158;2023-02-16T10:24:41;5.40;99.90
14016;DHT22;7083;48.854;9.158;2023-02-16T10:27:13;5.60;99.90
14016;DHT22;7083;48.854;9.158;2023-02-16T10:29:41;5.70;99.90
14016;DHT22;7083;48.854;9.158;2023-02-16T10:32:14;5.80;99.90
14016;DHT22;7083;48.854;9.158;2023-02-16T10:34:47;5.90;99.90
14016;DHT22;7083;48.854;9.158;2023-02-16T10:37:36;6.10;99.90
14016;DHT22;7083;48.854;9.158;2023-02-16T10:40:20;6.20;99.90
14016;DHT22;7083;48.854;9.158;2023-02-16T10:42:53;6.30;99.90
14016;DHT22;7083;48.854;9.158;2023-02-16T10:45:29;6.40;99.90
14016;DHT22;7083;48.854;9.158;2023-02-16T10:47:57;6.50;99.90
14016;DHT22;7083;48.854;9.158;2023-02-16T10:50:27;6.60;99.90
14016;DHT22;7083;48.854;9.158;2023-02-16T10:52:58;6.70;99.90
14016;DHT22;7083;48.854;9.158;2023-02-16T10:55:27;6.90;99.90
14016;DHT22;7083;48.854;9.158;2023-02-16T11:04:40;7.30;99.90
14016;DHT22;7083;48.854;9.158;2023-02-16T11:17:49;8.00;99.90
14016;DHT22;7083;48.854;9.158;2023-02-16T11:23:39;8.50;99.90
14016;DHT22;7083;48.854;9.158;2023-02-16T11:26:21;8.80;99.90
14016;DHT22;7083;48.854;9.158;2023-02-16T11:28:49;9.00;99.90
14016;DHT22;7083;48.854;9.158;2023-02-16T11:31:22;9.30;97.70
14016;DHT22;7083;48.854;9.158;2023-02-16T11:33:57;9.50;96.30
14016;DHT22;7083;48.854;9.158;2023-02-16T11:36:31;9.60;95.80
14016;DHT22;7083;48.854;9.158;2023-02-16T11:39:00;9.80;94.50
14016;DHT22;7083;48.854;9.158;2023-02-16T11:41:27;9.90;93.20
14016;DHT22;7083;48.854;9.158;2023-02-16T11:43:55;10.10;92.20
14016;DHT22;7083;48.854;9.158;2023-02-16T11:46:23;10.20;90.80
14016;DHT22;7083;48.854;9.158;2023-02-16T11:48:50;10.30;90.80
14016;DHT22;7083;48.854;9.158;2023-02-16T11:51:33;10.30;90.80
14016;DHT22;7083;48.854;9.158;2023-02-16T11:54:03;10.40;90.90
14016;DHT22;7083;48.854;9.158;2023-02-16T11:57:01;10.50;90.90
14016;DHT22;7083;48.854;9.158;2023-02-16T11:59:32;10.70;87.90
14016;DHT22;7083;48.854;9.158;2023-02-16T12:02:23;10.80;87.00
14016;DHT22;7083;48.854;9.158;2023-02-16T12:05:07;11.00;84.90
14016;DHT22;7083;48.854;9.158;2023-02-16T12:07:44;11.20;83.30
14016;DHT22;7083;48.854;9.158;2023-02-16T12:10:19;11.50;81.30
14016;DHT22;7083;48.854;9.158;2023-02-16T12:12:51;11.80;78.50
14016;DHT22;7083;48.854;9.158;2023-02-16T12:15:26;12.00;78.60
14016;DHT22;7083;48.854;9.158;2023-02-16T12:18:14;12.40;74.40
14016;DHT22;7083;48.854;9.158;2023-02-16T12:20:48;12.60;75.10
14016;DHT22;7083;48.854;9.158;2023-02-16T12:23:25;13.20;73.30
14016;DHT22;7083;48.854;9.158;2023-02-16T12:26:03;13.20;73.70
14016;DHT22;7083;48.854;9.158;2023-02-16T12:28:39;13.50;73.10
14016;DHT22;7083;48.854;9.158;2023-02-16T12:31:13;13.80;72.10
14016;DHT22;7083;48.854;9.158;2023-02-16T12:33:52;13.90;71.40
14016;DHT22;7083;48.854;9.158;2023-02-16T12:36:32;13.90;72.00
14016;DHT22;7083;48.854;9.158;2023-02-16T12:39:11;14.10;72.00
14016;DHT22;7083;48.854;9.158;2023-02-16T12:41:50;14.30;71.30
14016;DHT22;7083;48.854;9.158;2023-02-16T12:44:23;14.50;69.70
14016;DHT22;7083;48.854;9.158;2023-02-16T12:46:59;14.40;69.90
14016;DHT22;7083;48.854;9.158;2023-02-16T12:49:31;14.40;70.30
14016;DHT22;7083;48.854;9.158;2023-02-16T12:52:05;14.40;72.00
14016;DHT22;7083;48.854;9.158;2023-02-16T12:54:42;14.40;71.40
14016;DHT22;7083;48.854;9.158;2023-02-16T12:57:12;14.30;71.20
14016;DHT22;7083;48.854;9.158;2023-02-16T12:59:43;14.30;71.70
14016;DHT22;7083;48.854;9.158;2023-02-16T13:02:17;14.30;72.20
14016;DHT22;7083;48.854;9.158;2023-02-16T13:04:49;14.40;72.90
14016;DHT22;7083;48.854;9.158;2023-02-16T13:07:21;14.40;73.20
14016;DHT22;7083;48.854;9.158;2023-02-16T13:09:58;14.40;71.90
14016;DHT22;7083;48.854;9.158;2023-02-16T13:12:31;14.60;70.60
14016;DHT22;7083;48.854;9.158;2023-02-16T13:15:04;14.60;71.50
14016;DHT22;7083;48.854;9.158;2023-02-16T13:17:34;14.70;71.50
14016;DHT22;7083;48.854;9.158;2023-02-16T13:20:02;14.70;71.00
14016;DHT22;7083;48.854;9.158;2023-02-16T13:25:45;15.00;72.80
14016;DHT22;7083;48.854;9.158;2023-02-16T13:28:28;15.00;70.90
14016;DHT22;7083;48.854;9.158;2023-02-16T13:31:10;15.00;71.50
14016;DHT22;7083;48.854;9.158;2023-02-16T13:33:50;14.90;71.60
14016;DHT22;7083;48.854;9.158;2023-02-16T13:36:37;14.90;73.00
14016;DHT22;7083;48.854;9.158;2023-02-16T13:39:31;14.80;72.60
14016;DHT22;7083;48.854;9.158;2023-02-16T13:42:16;14.70;71.90
14016;DHT22;7083;48.854;9.158;2023-02-16T13:44:48;14.60;73.00
14016;DHT22;7083;48.854;9.158;2023-02-16T13:47:19;14.50;72.60
14016;DHT22;7083;48.854;9.158;2023-02-16T13:49:55;14.50;73.40
14016;DHT22;7083;48.854;9.158;2023-02-16T13:52:29;14.50;74.10
14016;DHT22;7083;48.854;9.158;2023-02-16T13:54:58;14.60;74.90
14016;DHT22;7083;48.854;9.158;2023-02-16T13:57:57;14.80;75.30
14016;DHT22;7083;48.854;9.158;2023-02-16T14:00:27;15.10;75.40
14016;DHT22;7083;48.854;9.158;2023-02-16T14:02:56;15.50;74.60
14016;DHT22;7083;48.854;9.158;2023-02-16T14:05:29;15.70;72.90
14016;DHT22;7083;48.854;9.158;2023-02-16T14:08:18;15.90;72.40
14016;DHT22;7083;48.854;9.158;2023-02-16T14:10:57;15.90;71.90
14016;DHT22;7083;48.854;9.158;2023-02-16T14:13:28;15.90;71.70
14016;DHT22;7083;48.854;9.158;2023-02-16T14:15:57;15.90;72.30
14016;DHT22;7083;48.854;9.158;2023-02-16T14:18:29;16.10;72.60
14016;DHT22;7083;48.854;9.158;2023-02-16T14:21:01;16.40;72.00
14016;DHT22;7083;48.854;9.158;2023-02-16T14:23:29;16.60;71.60
14016;DHT22;7083;48.854;9.158;2023-02-16T14:26:03;17.70;71.40
14016;DHT22;7083;48.854;9.158;2023-02-16T14:29:00;16.60;68.90
14016;DHT22;7083;48.854;9.158;2023-02-16T14:31:30;16.40;68.90
14016;DHT22;7083;48.854;9.158;2023-02-16T14:34:02;16.10;69.90
14016;DHT22;7083;48.854;9.158;2023-02-16T14:36:30;15.90;70.50
14016;DHT22;7083;48.854;9.158;2023-02-16T14:38:58;15.80;71.30
14016;DHT22;7083;48.854;9.158;2023-02-16T14:41:28;15.70;70.70
14016;DHT22;7083;48.854;9.158;2023-02-16T14:44:19;16.60;71.90
14016;DHT22;7083;48.854;9.158;2023-02-16T14:47:03;15.50;71.80
14016;DHT22;7083;48.854;9.158;2023-02-16T14:49:49;15.40;72.90
14016;DHT22;7083;48.854;9.158;2023-02-16T14:52:41;15.30;73.00
14016;DHT22;7083;48.854;9.158;2023-02-16T15:02:25;15.00;73.60
14016;DHT22;7083;48.854;9.158;2023-02-16T15:04:52;14.80;73.70
14016;DHT22;7083;48.854;9.158;2023-02-16T15:07:19;14.70;73.60
14016;DHT22;7083;48.854;9.158;2023-02-16T15:09:58;14.50;74.20
14016;DHT22;7083;48.854;9.158;2023-02-16T15:12:29;14.40;74.10
14016;DHT22;7083;48.854;9.158;2023-02-16T15:14:59;14.30;75.10
14016;DHT22;7083;48.854;9.158;2023-02-16T15:17:31;14.10;76.00
14016;DHT22;7083;48.854;9.158;2023-02-16T15:20:06;14.00;75.80
14016;DHT22;7083;48.854;9.158;2023-02-16T15:26:04;13.80;76.60
14016;DHT22;7083;48.854;9.158;2023-02-16T15:31:48;13.70;75.50
14016;DHT22;7083;48.854;9.158;2023-02-16T15:34:28;13.70;75.00
14016;DHT22;7083;48.854;9.158;2023-02-16T16:27:56;12.00;73.90
14016;DHT22;7083;48.854;9.158;2023-02-16T16:47:22;11.60;74.90
14016;DHT22;7083;48.854;9.158;2023-02-16T16:49:51;11.50;75.60
14016;DHT22;7083;48.854;9.158;2023-02-16T16:52:37;11.40;76.30
14016;DHT22;7083;48.854;9.158;2023-02-16T16:55:23;11.30;76.60
14016;DHT22;7083;48.854;9.158;2023-02-16T16:57:52;11.20;76.90
14016;DHT22;7083;48.854;9.158;2023-02-16T17:03:43;11.20;76.80
14016;DHT22;7083;48.854;9.158;2023-02-16T17:06:09;11.10;77.60
14016;DHT22;7083;48.854;9.158;2023-02-16T17:08:38;11.10;77.70
14016;DHT22;7083;48.854;9.158;2023-02-16T17:11:09;11.00;77.90
14016;DHT22;7083;48.854;9.158;2023-02-16T17:16:59;10.90;78.60
14016;DHT22;7083;48.854;9.158;2023-02-16T17:19:27;10.80;79.00
14016;DHT22;7083;48.854;9.158;2023-02-16T17:21:55;10.70;79.20
14016;DHT22;7083;48.854;9.158;2023-02-16T17:27:44;10.60;79.60
14016;DHT22;7083;48.854;9.158;2023-02-16T17:30:32;10.50;79.70
14016;DHT22;7083;48.854;9.158;2023-02-16T17:33:17;10.40;80.00
14016;DHT22;7083;48.854;9.158;2023-02-16T17:35:45;10.30;80.50
14016;DHT22;7083;48.854;9.158;2023-02-16T17:38:18;10.20;81.20
14016;DHT22;7083;48.854;9.158;2023-02-16T17:40:46;10.20;82.00
14016;DHT22;7083;48.854;9.158;2023-02-16T18:00:06;9.90;84.50
14016;DHT22;7083;48.854;9.158;2023-02-16T18:09:05;9.70;86.00
14016;DHT22;7083;48.854;9.158;2023-02-16T18:11:32;9.70;86.50
14016;DHT22;7083;48.854;9.158;2023-02-16T18:40:57;9.20;92.60
14016;DHT22;7083;48.854;9.158;2023-02-16T18:43:24;9.10;93.10
14016;DHT22;7083;48.854;9.158;2023-02-16T18:52:46;9.00;94.20
14016;DHT22;7083;48.854;9.158;2023-02-16T18:55:13;9.00;94.50
14016;DHT22;7083;48.854;9.158;2023-02-16T18:57:42;8.90;94.60
14016;DHT22;7083;48.854;9.158;2023-02-16T19:00:10;8.90;94.70
14016;DHT22;7083;48.854;9.158;2023-02-16T19:02:38;8.90;94.50
14016;DHT22;7083;48.854;9.158;2023-02-16T19:05:07;8.90;94.80
14016;DHT22;7083;48.854;9.158;2023-02-16T19:07:33;8.90;95.10
14016;DHT22;7083;48.854;9.158;2023-02-16T19:10:00;8.80;95.30
14016;DHT22;7083;48.854;9.158;2023-02-16T19:12:27;8.80;95.40
14016;DHT22;7083;48.854;9.158;2023-02-16T19:14:55;8.80;95.70
14016;DHT22;7083;48.854;9.158;2023-02-16T19:17:22;8.80;96.00
14016;DHT22;7083;48.854;9.158;2023-02-16T19:19:49;8.80;95.70
14016;DHT22;7083;48.854;9.158;2023-02-16T19:22:15;8.80;95.30
14016;DHT22;7083;48.854;9.158;2023-02-16T19:24:42;8.90;94.30